sensor_id;sensor_type;location;lat;lon;timestamp;temperature;humidity
38458;DHT22;24239;48.058;10.486;2023-03-03T00:01:38;1.00;99.90
38458;DHT22;24239;48.058;10.486;2023-03-03T00:04:04;1.00;99.90
38458;DHT22;24239;48.058;10.486;2023-03-03T00:06:29;1.00;99.90
38458;DHT22;24239;48.058;10.486;2023-03-03T00:08:55;1.00;99.90
38458;DHT22;24239;48.058;10.486;2023-03-03T00:11:21;1.20;99.90
38458;DHT22;24239;48.058;10.486;2023-03-03T00:13:51;1.00;99.90
38458;DHT22;24239;48.058;10.486;2023-03-03T00:16:30;1.00;99.90
38458;DHT22;24239;48.058;10.486;2023-03-03T00:18:56;0.90;99.90
38458;DHT22;24239;48.058;10.486;2023-03-03T00:23:50;1.10;99.90
38458;DHT22;24239;48.058;10.486;2023-03-03T00:26:25;1.10;99.90
38458;DHT22;24239;48.058;10.486;2023-03-03T00:28:51;1.20;99.90
38458;DHT22;24239;48.058;10.486;2023-03-03T00:31:19;1.10;99.90
38458;DHT22;24239;48.058;10.486;2023-03-03T00:33:49;1.30;99.90
38458;DHT22;24239;48.058;10.486;2023-03-03T00:38:46;1.10;99.90
38458;DHT22;24239;48.058;10.486;2023-03-03T00:41:15;1.00;99.90
38458;DHT22;24239;48.058;10.486;2023-03-03T00:43:44;1.00;99.90
38458;DHT22;24239;48.058;10.486;2023-03-03T00:46:10;1.10;99.90
38458;DHT22;24239;48.058;10.486;2023-03-03T00:48:41;1.00;99.90
38458;DHT22;24239;48.058;10.486;2023-03-03T00:51:24;1.00;99.90
38458;DHT22;24239;48.058;10.486;2023-03-03T00:53:50;1.00;99.90
38458;DHT22;24239;48.058;10.486;2023-03-03T00:56:16;1.00;99.90
38458;DHT22;24239;48.058;10.486;2023-03-03T00:58:42;1.00;99.90
38458;DHT22;24239;48.058;10.486;2023-03-03T01:01:10;1.00;99.90
38458;DHT22;24239;48.058;10.486;2023-03-03T01:03:35;1.00;99.90
38458;DHT22;24239;48.058;10.486;2023-03-03T01:06:01;1.00;99.90
38458;DHT22;24239;48.058;10.486;2023-03-03T01:08:27;1.00;99.90
38458;DHT22;24239;48.058;10.486;2023-03-03T01:10:54;1.10;99.90
38458;DHT22;24239;48.058;10.486;2023-03-03T01:13:21;1.00;99.90
38458;DHT22;24239;48.058;10.486;2023-03-03T01:15:48;1.10;99.90
38458;DHT22;24239;48.058;10.486;2023-03-03T01:18:14;1.00;99.90
38458;DHT22;24239;48.058;10.486;2023-03-03T01:20:43;1.10;99.90
38458;DHT22;24239;48.058;10.486;2023-03-03T01:23:08;1.00;99.90
38458;DHT22;24239;48.058;10.486;2023-03-03T01:25:35;1.00;99.90
38458;DHT22;24239;48.058;10.486;2023-03-03T01:28:00;1.00;99.90
38458;DHT22;24239;48.058;10.486;2023-03-03T01:30:26;1.00;99.90
38458;DHT22;24239;48.058;10.486;2023-03-03T01:32:52;1.00;99.90
38458;DHT22;24239;48.058;10.486;2023-03-03T01:35:18;1.00;99.90
38458;DHT22;24239;48.058;10.486;2023-03-03T01:37:43;1.00;99.90
38458;DHT22;24239;48.058;10.486;2023-03-03T01:40:14;1.40;99.90
38458;DHT22;24239;48.058;10.486;2023-03-03T01:42:40;1.00;99.90
38458;DHT22;24239;48.058;10.486;2023-03-03T01:45:16;1.10;99.90
38458;DHT22;24239;48.058;10.486;2023-03-03T01:47:47;1.10;99.90
38458;DHT22;24239;48.058;10.486;2023-03-03T01:50:16;1.00;99.90
38458;DHT22;24239;48.058;10.486;2023-03-03T01:52:45;1.10;99.90
38458;DHT22;24239;48.058;10.486;2023-03-03T01:55:12;1.00;99.90
38458;DHT22;24239;48.058;10.486;2023-03-03T01:57:43;1.10;99.90
38458;DHT22;24239;48.058;10.486;2023-03-03T02:00:11;1.10;99.90
38458;DHT22;24239;48.058;10.486;2023-03-03T02:02:37;1.00;99.90
38458;DHT22;24239;48.058;10.486;2023-03-03T02:05:03;1.00;99.90
38458;DHT22;24239;48.058;10.486;2023-03-03T02:07:29;1.00;99.90
38458;DHT22;24239;48.058;10.486;2023-03-03T02:12:30;1.00;99.90
38458;DHT22;24239;48.058;10.486;2023-03-03T02:14:57;1.00;99.90
38458;DHT22;24239;48.058;10.486;2023-03-03T02:17:22;1.00;99.90
38458;DHT22;24239;48.058;10.486;2023-03-03T02:20:23;0.90;99.90
38458;DHT22;24239;48.058;10.486;2023-03-03T02:28:18;1.00;99.90
38458;DHT22;24239;48.058;10.486;2023-03-03T02:30:44;0.90;99.90
38458;DHT22;24239;48.058;10.486;2023-03-03T02:33:12;0.90;99.90
38458;DHT22;24239;48.058;10.486;2023-03-03T02:35:39;1.20;99.90
38458;DHT22;24239;48.058;10.486;2023-03-03T02:40:36;1.00;99.90
38458;DHT22;24239;48.058;10.486;2023-03-03T02:43:04;0.90;99.90
38458;DHT22;24239;48.058;10.486;2023-03-03T02:45:41;0.90;99.90
38458;DHT22;24239;48.058;10.486;2023-03-03T02:48:07;1.00;99.90
38458;DHT22;24239;48.058;10.486;2023-03-03T02:50:32;1.00;99.90
38458;DHT22;24239;48.058;10.486;2023-03-03T02:53:01;1.00;99.90
38458;DHT22;24239;48.058;10.486;2023-03-03T02:55:30;1.00;99.90
38458;DHT22;24239;48.058;10.486;2023-03-03T02:57:56;1.00;99.90
38458;DHT22;24239;48.058;10.486;2023-03-03T03:00:21;0.90;99.90
38458;DHT22;24239;48.058;10.486;2023-03-03T03:02:47;1.10;99.90
38458;DHT22;24239;48.058;10.486;2023-03-03T03:05:13;0.90;99.90
38458;DHT22;24239;48.058;10.486;2023-03-03T03:07:39;0.90;99.90
38458;DHT22;24239;48.058;10.486;2023-03-03T03:10:04;1.00;99.90
38458;DHT22;24239;48.058;10.486;2023-03-03T03:12:30;0.90;99.90
38458;DHT22;24239;48.058;10.486;2023-03-03T03:14:57;1.00;99.90
38458;DHT22;24239;48.058;10.486;2023-03-03T03:17:23;1.00;99.90
38458;DHT22;24239;48.058;10.486;2023-03-03T03:19:49;0.90;99.90
38458;DHT22;24239;48.058;10.486;2023-03-03T03:22:14;0.90;99.90
38458;DHT22;24239;48.058;10.486;2023-03-03T03:24:42;0.90;99.90
38458;DHT22;24239;48.058;10.486;2023-03-03T03:27:09;0.80;99.90
38458;DHT22;24239;48.058;10.486;2023-03-03T03:29:34;0.90;99.90
38458;DHT22;24239;48.058;10.486;2023-03-03T03:32:00;0.90;99.90
38458;DHT22;24239;48.058;10.486;2023-03-03T03:34:26;0.90;99.90
38458;DHT22;24239;48.058;10.486;2023-03-03T03:36:51;1.10;99.90
38458;DHT22;24239;48.058;10.486;2023-03-03T03:39:17;0.90;99.90
38458;DHT22;24239;48.058;10.486;2023-03-03T03:41:45;1.20;99.90
38458;DHT22;24239;48.058;10.486;2023-03-03T03:44:11;1.00;99.90
38458;DHT22;24239;48.058;10.486;2023-03-03T03:46:36;1.00;99.90
38458;DHT22;24239;48.058;10.486;2023-03-03T03:49:05;1.00;99.90
38458;DHT22;24239;48.058;10.486;2023-03-03T03:51:30;1.10;99.90
38458;DHT22;24239;48.058;10.486;2023-03-03T03:53:58;1.10;99.90
38458;DHT22;24239;48.058;10.486;2023-03-03T03:56:24;1.00;99.90
38458;DHT22;24239;48.058;10.486;2023-03-03T03:58:49;1.20;99.90
38458;DHT22;24239;48.058;10.486;2023-03-03T04:01:15;1.00;99.90
38458;DHT22;24239;48.058;10.486;2023-03-03T04:03:41;1.30;99.90
38458;DHT22;24239;48.058;10.486;2023-03-03T04:06:06;1.20;99.90
38458;DHT22;24239;48.058;10.486;2023-03-03T04:08:35;1.20;99.90
38458;DHT22;24239;48.058;10.486;2023-03-03T04:11:00;1.20;99.90
38458;DHT22;24239;48.058;10.486;2023-03-03T04:13:26;1.10;99.90
38458;DHT22;24239;48.058;10.486;2023-03-03T04:15:56;1.10;99.90
38458;DHT22;24239;48.058;10.486;2023-03-03T04:18:22;1.00;99.90
38458;DHT22;24239;48.058;10.486;2023-03-03T04:20:48;1.30;99.90
38458;DHT22;24239;48.058;10.486;2023-03-03T04:23:16;1.10;99.90
38458;DHT22;24239;48.058;10.486;2023-03-03T04:25:47;1.20;99.90
38458;DHT22;24239;48.058;10.486;2023-03-03T04:28:13;1.20;99.90
38458;DHT22;24239;48.058;10.486;2023-03-03T04:30:39;1.30;99.90
38458;DHT22;24239;48.058;10.486;2023-03-03T04:33:05;1.20;99.90
38458;DHT22;24239;48.058;10.486;2023-03-03T04:35:31;1.20;99.90
38458;DHT22;24239;48.058;10.486;2023-03-03T04:37:56;1.50;99.90
38458;DHT22;24239;48.058;10.486;2023-03-03T04:40:25;1.30;99.90
38458;DHT22;24239;48.058;10.486;2023-03-03T04:42:50;1.20;99.90
38458;DHT22;24239;48.058;10.486;2023-03-03T04:45:16;1.20;99.90
38458;DHT22;24239;48.058;10.486;2023-03-03T04:47:42;1.20;99.90
38458;DHT22;24239;48.058;10.486;2023-03-03T04:50:08;1.30;99.90
38458;DHT22;24239;48.058;10.486;2023-03-03T04:52:34;1.20;99.90
38458;DHT22;24239;48.058;10.486;2023-03-03T04:55:00;1.30;99.90
38458;DHT22;24239;48.058;10.486;2023-03-03T04:57:29;1.20;99.90
38458;DHT22;24239;48.058;10.486;2023-03-03T04:59:54;1.20;99.90
38458;DHT22;24239;48.058;10.486;2023-03-03T05:02:23;1.30;99.90
38458;DHT22;24239;48.058;10.486;2023-03-03T05:04:49;1.20;99.90
38458;DHT22;24239;48.058;10.486;2023-03-03T05:07:15;1.30;99.90
38458;DHT22;24239;48.058;10.486;2023-03-03T05:09:42;1.20;99.90
38458;DHT22;24239;48.058;10.486;2023-03-03T05:12:07;1.30;99.90
38458;DHT22;24239;48.058;10.486;2023-03-03T05:14:33;1.30;99.90
38458;DHT22;24239;48.058;10.486;2023-03-03T05:16:59;1.20;99.90
38458;DHT22;24239;48.058;10.486;2023-03-03T05:19:25;1.20;99.90
38458;DHT22;24239;48.058;10.486;2023-03-03T05:21:53;1.30;99.90
38458;DHT22;24239;48.058;10.486;2023-03-03T05:24:19;1.30;99.90
38458;DHT22;24239;48.058;10.486;2023-03-03T05:26:47;1.30;99.90
38458;DHT22;24239;48.058;10.486;2023-03-03T05:29:12;1.60;99.90
38458;DHT22;24239;48.058;10.486;2023-03-03T05:31:38;1.30;99.90
38458;DHT22;24239;48.058;10.486;2023-03-03T05:34:04;1.20;99.90
38458;DHT22;24239;48.058;10.486;2023-03-03T05:36:30;1.30;99.90
38458;DHT22;24239;48.058;10.486;2023-03-03T05:38:55;1.20;99.90
38458;DHT22;24239;48.058;10.486;2023-03-03T05:41:21;1.30;99.90
38458;DHT22;24239;48.058;10.486;2023-03-03T05:43:47;1.20;99.90
38458;DHT22;24239;48.058;10.486;2023-03-03T05:46:12;1.30;99.90
38458;DHT22;24239;48.058;10.486;2023-03-03T05:48:38;1.30;99.90
38458;DHT22;24239;48.058;10.486;2023-03-03T05:51:04;1.20;99.90
38458;DHT22;24239;48.058;10.486;2023-03-03T05:53:33;1.40;99.90
38458;DHT22;24239;48.058;10.486;2023-03-03T05:55:58;1.30;99.90
38458;DHT22;24239;48.058;10.486;2023-03-03T05:58:24;1.20;99.90
38458;DHT22;24239;48.058;10.486;2023-03-03T06:00:50;1.30;99.90
38458;DHT22;24239;48.058;10.486;2023-03-03T06:03:16;1.20;99.90
38458;DHT22;24239;48.058;10.486;2023-03-03T06:05:42;1.30;99.90
38458;DHT22;24239;48.058;10.486;2023-03-03T06:08:08;1.40;99.90
38458;DHT22;24239;48.058;10.486;2023-03-03T06:10:34;1.40;99.90
38458;DHT22;24239;48.058;10.486;2023-03-03T06:12:59;1.20;99.90
38458;DHT22;24239;48.058;10.486;2023-03-03T06:15:25;1.40;99.90
38458;DHT22;24239;48.058;10.486;2023-03-03T06:17:51;1.40;99.90
38458;DHT22;24239;48.058;10.486;2023-03-03T06:20:17;1.30;99.90
38458;DHT22;24239;48.058;10.486;2023-03-03T06:22:43;1.30;99.90
38458;DHT22;24239;48.058;10.486;2023-03-03T06:25:08;1.30;99.90
38458;DHT22;24239;48.058;10.486;2023-03-03T06:27:36;1.30;99.90
38458;DHT22;24239;48.058;10.486;2023-03-03T06:30:02;1.30;99.90
38458;DHT22;24239;48.058;10.486;2023-03-03T06:32:28;1.30;99.90
38458;DHT22;24239;48.058;10.486;2023-03-03T06:34:54;1.40;99.90
38458;DHT22;24239;48.058;10.486;2023-03-03T06:37:21;1.50;99.90
38458;DHT22;24239;48.058;10.486;2023-03-03T06:39:47;1.30;99.90
38458;DHT22;24239;48.058;10.486;2023-03-03T06:42:13;1.40;99.90
38458;DHT22;24239;48.058;10.486;2023-03-03T06:44:39;1.50;99.90
38458;DHT22;24239;48.058;10.486;2023-03-03T06:47:06;1.40;99.90
38458;DHT22;24239;48.058;10.486;2023-03-03T06:49:32;1.50;99.90
38458;DHT22;24239;48.058;10.486;2023-03-03T06:51:59;1.40;99.90
38458;DHT22;24239;48.058;10.486;2023-03-03T06:54:29;1.30;99.90
38458;DHT22;24239;48.058;10.486;2023-03-03T06:56:57;1.50;99.90
38458;DHT22;24239;48.058;10.486;2023-03-03T06:59:25;1.50;99.90
38458;DHT22;24239;48.058;10.486;2023-03-03T07:01:51;1.60;99.90
38458;DHT22;24239;48.058;10.486;2023-03-03T07:04:28;1.50;99.90
38458;DHT22;24239;48.058;10.486;2023-03-03T07:06:59;1.50;99.90
38458;DHT22;24239;48.058;10.486;2023-03-03T07:09:29;1.50;99.90
38458;DHT22;24239;48.058;10.486;2023-03-03T07:11:56;1.50;99.90
38458;DHT22;24239;48.058;10.486;2023-03-03T07:14:22;1.40;99.90
38458;DHT22;24239;48.058;10.486;2023-03-03T07:16:55;1.60;99.90
38458;DHT22;24239;48.058;10.486;2023-03-03T07:19:29;1.50;99.90
38458;DHT22;24239;48.058;10.486;2023-03-03T07:21:56;1.50;99.90
38458;DHT22;24239;48.058;10.486;2023-03-03T07:24:29;1.50;99.90
38458;DHT22;24239;48.058;10.486;2023-03-03T07:26:59;1.60;99.90
38458;DHT22;24239;48.058;10.486;2023-03-03T07:29:31;1.50;99.90
38458;DHT22;24239;48.058;10.486;2023-03-03T07:32:00;1.60;99.90
38458;DHT22;24239;48.058;10.486;2023-03-03T07:34:34;1.50;99.90
38458;DHT22;24239;48.058;10.486;2023-03-03T07:37:12;1.60;99.90
38458;DHT22;24239;48.058;10.486;2023-03-03T07:39:42;1.60;99.90
38458;DHT22;24239;48.058;10.486;2023-03-03T07:44:41;1.50;99.90
38458;DHT22;24239;48.058;10.486;2023-03-03T07:49:46;1.60;99.90
38458;DHT22;24239;48.058;10.486;2023-03-03T07:52:38;1.70;99.90
38458;DHT22;24239;48.058;10.486;2023-03-03T07:57:50;1.70;99.90
38458;DHT22;24239;48.058;10.486;2023-03-03T08:02:56;1.80;99.90
38458;DHT22;24239;48.058;10.486;2023-03-03T08:07:54;1.80;99.90
38458;DHT22;24239;48.058;10.486;2023-03-03T08:10:34;1.70;99.90
38458;DHT22;24239;48.058;10.486;2023-03-03T08:13:04;1.90;99.90
38458;DHT22;24239;48.058;10.486;2023-03-03T08:15:35;1.80;99.90
38458;DHT22;24239;48.058;10.486;2023-03-03T08:18:08;1.90;99.90
38458;DHT22;24239;48.058;10.486;2023-03-03T08:20:47;1.90;99.90
38458;DHT22;24239;48.058;10.486;2023-03-03T08:23:14;1.90;99.90
38458;DHT22;24239;48.058;10.486;2023-03-03T08:25:40;1.90;99.90
38458;DHT22;24239;48.058;10.486;2023-03-03T08:28:07;1.90;99.90
38458;DHT22;24239;48.058;10.486;2023-03-03T08:30:33;2.00;99.90
38458;DHT22;24239;48.058;10.486;2023-03-03T08:33:00;1.90;99.90
38458;DHT22;24239;48.058;10.486;2023-03-03T08:35:26;2.00;99.90
38458;DHT22;24239;48.058;10.486;2023-03-03T08:37:53;2.00;99.90
38458;DHT22;24239;48.058;10.486;2023-03-03T08:40:19;2.10;99.90
38458;DHT22;24239;48.058;10.486;2023-03-03T08:42:46;2.10;99.90
38458;DHT22;24239;48.058;10.486;2023-03-03T08:45:12;2.10;99.90
38458;DHT22;24239;48.058;10.486;2023-03-03T08:47:38;2.20;99.90
38458;DHT22;24239;48.058;10.486;2023-03-03T08:50:05;2.20;99.90
38458;DHT22;24239;48.058;10.486;2023-03-03T08:52:31;2.30;99.90
38458;DHT22;24239;48.058;10.486;2023-03-03T08:54:59;2.30;99.90
38458;DHT22;24239;48.058;10.486;2023-03-03T08:57:25;2.40;99.90
38458;DHT22;24239;48.058;10.486;2023-03-03T08:59:51;2.40;99.90
38458;DHT22;24239;48.058;10.486;2023-03-03T09:02:18;2.50;99.90
38458;DHT22;24239;48.058;10.486;2023-03-03T09:04:44;2.40;99.90
38458;DHT22;24239;48.058;10.486;2023-03-03T09:07:13;2.50;99.90
38458;DHT22;24239;48.058;10.486;2023-03-03T09:09:39;2.60;99.90
38458;DHT22;24239;48.058;10.486;2023-03-03T09:12:13;2.50;99.90
38458;DHT22;24239;48.058;10.486;2023-03-03T09:14:40;2.40;99.90
38458;DHT22;24239;48.058;10.486;2023-03-03T09:17:17;2.40;99.90
38458;DHT22;24239;48.058;10.486;2023-03-03T09:19:44;2.50;99.90
38458;DHT22;24239;48.058;10.486;2023-03-03T09:22:22;2.40;99.90
38458;DHT22;24239;48.058;10.486;2023-03-03T09:24:50;2.60;99.90
38458;DHT22;24239;48.058;10.486;2023-03-03T09:27:22;2.60;99.90
38458;DHT22;24239;48.058;10.486;2023-03-03T09:29:51;2.60;99.90
38458;DHT22;24239;48.058;10.486;2023-03-03T09:32:26;2.70;99.90
38458;DHT22;24239;48.058;10.486;2023-03-03T09:34:55;2.80;99.90
38458;DHT22;24239;48.058;10.486;2023-03-03T09:37:28;2.90;99.90
38458;DHT22;24239;48.058;10.486;2023-03-03T09:39:58;3.00;99.90
38458;DHT22;24239;48.058;10.486;2023-03-03T09:47:52;3.50;99.90
38458;DHT22;24239;48.058;10.486;2023-03-03T09:50:24;3.50;99.90
38458;DHT22;24239;48.058;10.486;2023-03-03T09:53:08;3.70;99.90
38458;DHT22;24239;48.058;10.486;2023-03-03T10:05:52;3.90;99.90
38458;DHT22;24239;48.058;10.486;2023-03-03T10:10:59;4.10;99.90
38458;DHT22;24239;48.058;10.486;2023-03-03T10:18:44;4.50;99.90
38458;DHT22;24239;48.058;10.486;2023-03-03T10:21:59;4.60;99.90
38458;DHT22;24239;48.058;10.486;2023-03-03T10:29:27;4.80;99.90
38458;DHT22;24239;48.058;10.486;2023-03-03T10:37:43;5.00;99.90
38458;DHT22;24239;48.058;10.486;2023-03-03T10:40:28;5.10;99.90
38458;DHT22;24239;48.058;10.486;2023-03-03T10:45:30;5.20;99.90
38458;DHT22;24239;48.058;10.486;2023-03-03T10:48:09;5.50;99.90
38458;DHT22;24239;48.058;10.486;2023-03-03T10:50:55;5.20;99.90
38458;DHT22;24239;48.058;10.486;2023-03-03T10:55:56;5.70;99.90
38458;DHT22;24239;48.058;10.486;2023-03-03T11:03:43;6.50;99.90
38458;DHT22;24239;48.058;10.486;2023-03-03T11:11:58;6.40;99.90
38458;DHT22;24239;48.058;10.486;2023-03-03T11:14:28;6.50;99.90
38458;DHT22;24239;48.058;10.486;2023-03-03T11:29:49;5.70;99.90
38458;DHT22;24239;48.058;10.486;2023-03-03T11:32:25;5.70;99.90
38458;DHT22;24239;48.058;10.486;2023-03-03T11:34:59;5.90;99.90
38458;DHT22;24239;48.058;10.486;2023-03-03T11:40:46;5.70;99.90
38458;DHT22;24239;48.058;10.486;2023-03-03T11:43:55;5.70;99.90
38458;DHT22;24239;48.058;10.486;2023-03-03T11:45:50;5.70;99.90
38458;DHT22;24239;48.058;10.486;2023-03-03T11:51:19;6.00;99.90
38458;DHT22;24239;48.058;10.486;2023-03-03T11:56:48;6.20;99.90
38458;DHT22;24239;48.058;10.486;2023-03-03T12:02:02;6.40;99.90
38458;DHT22;24239;48.058;10.486;2023-03-03T12:10:38;7.00;99.90
38458;DHT22;24239;48.058;10.486;2023-03-03T12:13:29;7.00;99.90
38458;DHT22;24239;48.058;10.486;2023-03-03T12:16:25;7.00;99.90
38458;DHT22;24239;48.058;10.486;2023-03-03T12:19:12;7.00;99.90
38458;DHT22;24239;48.058;10.486;2023-03-03T12:30:34;6.90;99.90
38458;DHT22;24239;48.058;10.486;2023-03-03T12:38:55;6.90;99.90
38458;DHT22;24239;48.058;10.486;2023-03-03T12:41:40;7.00;99.90
38458;DHT22;24239;48.058;10.486;2023-03-03T12:44:32;6.80;99.90
38458;DHT22;24239;48.058;10.486;2023-03-03T12:47:24;6.90;99.90
38458;DHT22;24239;48.058;10.486;2023-03-03T12:50:08;6.90;99.90
38458;DHT22;24239;48.058;10.486;2023-03-03T13:12:07;7.20;99.90
38458;DHT22;24239;48.058;10.486;2023-03-03T13:17:35;7.40;99.90
38458;DHT22;24239;48.058;10.486;2023-03-03T13:20:18;7.50;99.90
38458;DHT22;24239;48.058;10.486;2023-03-03T13:23:07;7.60;99.90
38458;DHT22;24239;48.058;10.486;2023-03-03T13:31:07;7.60;99.90
38458;DHT22;24239;48.058;10.486;2023-03-03T13:33:48;7.50;99.90
38458;DHT22;24239;48.058;10.486;2023-03-03T13:36:16;7.30;99.90
38458;DHT22;24239;48.058;10.486;2023-03-03T13:46:12;6.70;99.90
38458;DHT22;24239;48.058;10.486;2023-03-03T13:48:42;6.70;99.90
38458;DHT22;24239;48.058;10.486;2023-03-03T13:53:44;6.80;99.90
38458;DHT22;24239;48.058;10.486;2023-03-03T13:56:18;6.80;99.90
38458;DHT22;24239;48.058;10.486;2023-03-03T13:58:58;6.70;99.90
38458;DHT22;24239;48.058;10.486;2023-03-03T14:01:31;6.50;99.90
38458;DHT22;24239;48.058;10.486;2023-03-03T14:04:08;6.60;99.90
38458;DHT22;24239;48.058;10.486;2023-03-03T14:06:36;6.60;99.90
38458;DHT22;24239;48.058;10.486;2023-03-03T14:09:15;6.60;99.90
38458;DHT22;24239;48.058;10.486;2023-03-03T14:14:14;6.70;99.90
38458;DHT22;24239;48.058;10.486;2023-03-03T14:16:51;6.80;99.90
38458;DHT22;24239;48.058;10.486;2023-03-03T14:19:23;6.90;99.90
38458;DHT22;24239;48.058;10.486;2023-03-03T14:22:00;7.00;99.90
38458;DHT22;24239;48.058;10.486;2023-03-03T14:24:28;7.00;99.90
38458;DHT22;24239;48.058;10.486;2023-03-03T14:26:57;7.20;99.90
38458;DHT22;24239;48.058;10.486;2023-03-03T14:31:59;7.10;99.90
38458;DHT22;24239;48.058;10.486;2023-03-03T14:34:33;7.20;99.90
38458;DHT22;24239;48.058;10.486;2023-03-03T14:39:59;7.30;99.90
38458;DHT22;24239;48.058;10.486;2023-03-03T14:44:55;7.00;99.90
38458;DHT22;24239;48.058;10.486;2023-03-03T14:47:24;7.00;99.90
38458;DHT22;24239;48.058;10.486;2023-03-03T14:49:51;6.80;99.90
38458;DHT22;24239;48.058;10.486;2023-03-03T14:52:21;6.80;99.90
38458;DHT22;24239;48.058;10.486;2023-03-03T14:54:52;6.70;99.90
38458;DHT22;24239;48.058;10.486;2023-03-03T14:57:40;6.60;99.90
38458;DHT22;24239;48.058;10.486;2023-03-03T15:07:53;6.30;99.90
38458;DHT22;24239;48.058;10.486;2023-03-03T15:10:35;6.20;99.90
38458;DHT22;24239;48.058;10.486;2023-03-03T15:13:47;6.20;99.90
38458;DHT22;24239;48.058;10.486;2023-03-03T15:18:17;6.20;99.90
38458;DHT22;24239;48.058;10.486;2023-03-03T15:20:44;6.20;99.90
38458;DHT22;24239;48.058;10.486;2023-03-03T15:25:46;6.20;99.90
38458;DHT22;24239;48.058;10.486;2023-03-03T15:30:52;6.10;99.90
38458;DHT22;24239;48.058;10.486;2023-03-03T15:36:00;6.00;99.90
38458;DHT22;24239;48.058;10.486;2023-03-03T15:38:31;6.10;99.90
38458;DHT22;24239;48.058;10.486;2023-03-03T15:51:56;5.90;99.90
38458;DHT22;24239;48.058;10.486;2023-03-03T15:57:09;5.90;99.90
38458;DHT22;24239;48.058;10.486;2023-03-03T15:59:44;5.80;99.90
38458;DHT22;24239;48.058;10.486;2023-03-03T16:02:21;5.70;99.90
38458;DHT22;24239;48.058;10.486;2023-03-03T16:05:11;5.70;99.90
38458;DHT22;24239;48.058;10.486;2023-03-03T16:07:50;5.70;99.90
38458;DHT22;24239;48.058;10.486;2023-03-03T16:10:28;5.60;99.90
38458;DHT22;24239;48.058;10.486;2023-03-03T16:18:07;5.50;99.90
38458;DHT22;24239;48.058;10.486;2023-03-03T16:23:16;5.50;99.90
38458;DHT22;24239;48.058;10.486;2023-03-03T16:25:55;5.40;99.90
38458;DHT22;24239;48.058;10.486;2023-03-03T16:28:44;5.30;99.90
38458;DHT22;24239;48.058;10.486;2023-03-03T16:39:17;5.30;99.90
38458;DHT22;24239;48.058;10.486;2023-03-03T16:41:46;5.20;99.90
38458;DHT22;24239;48.058;10.486;2023-03-03T16:46:44;5.10;99.90
38458;DHT22;24239;48.058;10.486;2023-03-03T16:51:50;5.10;99.90
38458;DHT22;24239;48.058;10.486;2023-03-03T16:54:21;5.00;99.90
38458;DHT22;24239;48.058;10.486;2023-03-03T16:56:54;5.00;99.90
38458;DHT22;24239;48.058;10.486;2023-03-03T17:01:57;4.90;99.90
38458;DHT22;24239;48.058;10.486;2023-03-03T17:09:50;4.70;99.90
38458;DHT22;24239;48.058;10.486;2023-03-03T17:17:58;4.50;99.90
38458;DHT22;24239;48.058;10.486;2023-03-03T17:25:34;4.40;99.90
38458;DHT22;24239;48.058;10.486;2023-03-03T17:30:29;4.20;99.90
38458;DHT22;24239;48.058;10.486;2023-03-03T17:33:05;4.10;99.90
38458;DHT22;24239;48.058;10.486;2023-03-03T17:45:37;3.60;99.90
38458;DHT22;24239;48.058;10.486;2023-03-03T17:57:24;3.30;99.90
38458;DHT22;24239;48.058;10.486;2023-03-03T18:05:08;3.10;99.90
38458;DHT22;24239;48.058;10.486;2023-03-03T18:11:08;3.10;99.90
38458;DHT22;24239;48.058;10.486;2023-03-03T18:13:24;3.10;99.90
38458;DHT22;24239;48.058;10.486;2023-03-03T18:23:48;3.00;99.90
38458;DHT22;24239;48.058;10.486;2023-03-03T18:26:28;3.00;99.90
38458;DHT22;24239;48.058;10.486;2023-03-03T18:29:20;3.00;99.90
38458;DHT22;24239;48.058;10.486;2023-03-03T18:39:48;2.80;99.90
38458;DHT22;24239;48.058;10.486;2023-03-03T18:44:43;2.70;99.90
38458;DHT22;24239;48.058;10.486;2023-03-03T18:47:10;2.70;99.90
38458;DHT22;24239;48.058;10.486;2023-03-03T18:52:31;2.60;99.90
38458;DHT22;24239;48.058;10.486;2023-03-03T18:54:59;2.60;99.90
38458;DHT22;24239;48.058;10.486;2023-03-03T18:57:25;2.50;99.90
38458;DHT22;24239;48.058;10.486;2023-03-03T18:59:55;2.40;99.90
38458;DHT22;24239;48.058;10.486;2023-03-03T19:04:52;2.20;99.90
38458;DHT22;24239;48.058;10.486;2023-03-03T19:07:27;2.20;99.90
38458;DHT22;24239;48.058;10.486;2023-03-03T19:09:58;2.00;99.90
38458;DHT22;24239;48.058;10.486;2023-03-03T19:17:52;1.70;99.90
38458;DHT22;24239;48.058;10.486;2023-03-03T19:20:22;1.50;99.90
38458;DHT22;24239;48.058;10.486;2023-03-03T19:25:25;1.20;99.90
38458;DHT22;24239;48.058;10.486;2023-03-03T19:35:51;0.90;99.90
38458;DHT22;24239;48.058;10.486;2023-03-03T19:40:56;0.80;99.90
38458;DHT22;24239;48.058;10.486;2023-03-03T19:48:34;0.70;99.90
38458;DHT22;24239;48.058;10.486;2023-03-03T19:51:04;0.60;99.90
38458;DHT22;24239;48.058;10.486;2023-03-03T20:06:14;0.10;99.90
38458;DHT22;24239;48.058;10.486;2023-03-03T20:12:07;0.10;99.90
38458;DHT22;24239;48.058;10.486;2023-03-03T20:14:38;0.10;99.90
38458;DHT22;24239;48.058;10.486;2023-03-03T20:20:02;-0.10;99.90
38458;DHT22;24239;48.058;10.486;2023-03-03T20:59:36;-0.60;99.90
38458;DHT22;24239;48.058;10.486;2023-03-03T21:05:06;-0.80;99.90
38458;DHT22;24239;48.058;10.486;2023-03-03T21:07:32;-0.70;99.90
38458;DHT22;24239;48.058;10.486;2023-03-03T21:10:09;-0.70;99.90
38458;DHT22;24239;48.058;10.486;2023-03-03T21:12:35;-0.70;99.90
38458;DHT22;24239;48.058;10.486;2023-03-03T21:15:02;-0.60;99.90
38458;DHT22;24239;48.058;10.486;2023-03-03T21:17:30;-0.80;99.90
38458;DHT22;24239;48.058;10.486;2023-03-03T21:22:40;-0.90;99.90
38458;DHT22;24239;48.058;10.486;2023-03-03T21:25:10;-0.90;99.90
38458;DHT22;24239;48.058;10.486;2023-03-03T21:27:36;-1.00;99.90
38458;DHT22;24239;48.058;10.486;2023-03-03T21:30:07;-1.00;99.90
38458;DHT22;24239;48.058;10.486;2023-03-03T21:32:44;-1.10;99.90
38458;DHT22;24239;48.058;10.486;2023-03-03T21:35:20;-1.20;99.90
38458;DHT22;24239;48.058;10.486;2023-03-03T21:37:56;-1.20;99.90
38458;DHT22;24239;48.058;10.486;2023-03-03T21:40:32;-1.20;99.90
38458;DHT22;24239;48.058;10.486;2023-03-03T21:43:13;-1.20;99.90
38458;DHT22;24239;48.058;10.486;2023-03-03T21:46:06;-1.20;99.90
38458;DHT22;24239;48.058;10.486;2023-03-03T21:48:41;-1.10;99.90
38458;DHT22;24239;48.058;10.486;2023-03-03T21:51:17;-1.30;99.90
38458;DHT22;24239;48.058;10.486;2023-03-03T21:53:58;-1.30;99.90
38458;DHT22;24239;48.058;10.486;2023-03-03T21:56:34;-1.30;99.90
38458;DHT22;24239;48.058;10.486;2023-03-03T21:59:13;-1.30;99.90
38458;DHT22;24239;48.058;10.486;2023-03-03T22:01:49;-1.30;99.90
38458;DHT22;24239;48.058;10.486;2023-03-03T22:04:27;-1.20;99.90
38458;DHT22;24239;48.058;10.486;2023-03-03T22:07:03;-1.10;99.90
38458;DHT22;24239;48.058;10.486;2023-03-03T22:09:39;-1.40;99.90
38458;DHT22;24239;48.058;10.486;2023-03-03T22:12:14;-1.40;99.90